KMEV/MEV METAR and TAF weather

Enter ICAO airport designator
Station Type Date Time Source
KMEV METAR 2018/12/17 03:15 UTC NOAA

KMEV 170315Z AUTO 17017G28KT 10SM SCT075 09/M02 A3003 RMK AO2


Station Type Date Time Source
KMEV Decoded METAR 2018/12/17 03:15 UTC NOAA

Station name not available
Dec 16, 2018 - 10:15 PM EST / 2018.12.17 0315 UTC
Wind: from the S (170 degrees) at 20 MPH (17 KT) gusting to 32 MPH (28 KT):0
Visibility: 10 mile(s):0
Sky conditions: partly cloudy
Temperature: 48 F (9 C)
Dew Point: 28 F (-2 C)
Relative Humidity: 45%
Pressure (altimeter): 30.03 in. Hg (1016 hPa)
ob: KMEV 170315Z AUTO 17017G28KT 10SM SCT075 09/M02 A3003 RMK AO2
cycle: 3

Station Type Date Time Source
KMEV TAF UTC NOAA

Error!


Example: see airport list